Winchester, MA

3:46 AM EDT on April 27, 2015 (GMT -0400)
Cross Street | | Change Station
CLOSE
Current Station
Personal Weather Station
Location: Winchester, MA
Elevation: 36 ft
Nearby Weather Stations

Elev 36 ft 42.47 °N, 71.13 °W | Updated 1 minute ago

Overcast
Overcast
41.1 °F
Feels Like 41 °F
N
0.0
Wind Variable Wind from North
Gusts 0.0 mph

Today
High -- | Low -- °F
--% Chance of Precip.
Yesterday
High -- | Low -- °F
Precip. -- in
5:45 AM 7:39 PM
Waxing Gibbous, 63% visible
Pressure 29.64 in
Visibility 10.0 miles
Clouds Scattered Clouds 6500 ft
Mostly Cloudy 8000 ft
Overcast 9500 ft
Windchill 41 °F
Dew Point 32 °F
Humidity 70%
Rainfall 0.00 in
Snow Depth Not available.
UV 0 out of 12
Pollen 9.20 out of 12
Air Quality Not available.
Flu Activity Widespread
METAR KBED 270656Z AUTO 29004KT 10SM SCT065 BKN080 OVC095 07/01 A2960 RMK AO2 SLP035 T00670006 TSNO

More Conditions Fewer Conditions

Pressure 29.64 in
Visibility 10.0 miles
Clouds Scattered Clouds 6500 ft
Mostly Cloudy 8000 ft
Overcast 9500 ft
Windchill 41 °F
Dew Point 32 °F
Humidity 70%
Rainfall 0.00 in
Snow Depth Not available.
UV 0 out of 12
Pollen 9.20 out of 12
Air Quality Not available.
Flu Activity Widespread
METAR KBED 270656Z AUTO 29004KT 10SM SCT065 BKN080 OVC095 07/01 A2960 RMK AO2 SLP035 T00670006 TSNO

More Conditions Fewer Conditions

10-Day Weather Forecast

Almanac

Astronomy

Apr. 27, 2015 Rise Set
Actual Time
Civil Twilight
Nautical Twilight
Astronomical Twilight
Moon
Length of Visible Light
Length of Day
Tomorrow will be .
, % of the Moon is Illuminated

Today's Extremes

State Highs State Lows

Community

WunderPhotos

Upload Photos

1,817,277 photos uploaded!

WunderBlogs® & News

Nearby

Air Quality

  Air Quality AQ Index Pollutant
Not available.

Snow Depth

Station Depth Elevation

Earthquake Activity

City Distance Mag. Time & Date
Minimum magnitude displayed is 2.5.

Coastal Water Temperatures

Place Temperature

Stations

Nearby Weather Stations

Station Location Temp. Windchill Dew Point Humidity Wind Precip. Elev Updated Type